Etusivu
METAR-TAF:

METAR-TAF

Lentoasemat :

Atlantic, Iowa, Yhdysvallat

Leveyspiiri: 41-24N, Pituuspiiri: 095-03W, korkeus merenpinnasta: 360 m

Tämänhetkinen sää

Tämä raportti tehtiin 31 minuuttia sitten, kello 02.15 UTC
Tuuli 15 kn etelästä/lounaasta puuskistuen 25 kn:hen
Lämpötila 20°C
Kosteus 94%
Ilmanpaine 1010 hPa
Näkyvyys: 11.3 km
Muutamia pilviä 1300 ft:n korkeudessa
Hajonneita pilviä 3500 ft:n korkeudessa
Pilvistä 12000 ft:n korkeudessa
(kovaa) tuntematon

METAR: KAIO 160215Z AUTO 20015G25KT 7SM +UP FEW013 BKN035 OVC120 20/19 A2982 RMK AO2

Aika: 21:46 (02:46 UTC)


TAF: puuttuu

Säähavainnot ja -ennusteet yli 4000 lentoasemalta (METAR- ja TAF-raportit).

Käytössä olevat sääasemat on merkitty karttaan keltaisilla ja punaisilla pisteillä.

Aseta hiiri pisteen päälle nähdäksesi sääaseman nimen.

Klikkaa sitten nähdäksesi säähavainnot ja -ennusteet.

Kartan vaihtaminen: klikkaa mustalla rastilla varustettuja vihreitä pisteitä, niin voit zoomata sisään; viivalla varustettua vihreää pistettä, niin voit zoomata ulos tai vihreitä nuolia, niin pääset viereisille kartoille.


METAR-TAF: